createdAt,value
2023-09-03T00:00:42.443Z,62.39
2023-09-03T00:01:39.325Z,62.22
2023-09-03T00:02:36.106Z,62.25
2023-09-03T00:03:32.944Z,63.25
2023-09-03T00:04:29.730Z,63.27
2023-09-03T00:05:26.389Z,63.54
2023-09-03T00:06:23.121Z,63.64
2023-09-03T00:07:19.795Z,63.73
2023-09-03T00:08:16.614Z,64.08
2023-09-03T00:09:13.295Z,64.74
2023-09-03T00:10:10.097Z,64.55
2023-09-03T00:11:06.688Z,64.34
2023-09-03T00:12:04.551Z,64.70
2023-09-03T00:13:01.144Z,64.83
2023-09-03T00:13:58.174Z,65.06
2023-09-03T00:14:55.854Z,65.26
2023-09-03T00:15:52.514Z,65.11
2023-09-03T00:16:49.343Z,64.88
2023-09-03T00:17:46.564Z,64.74
2023-09-03T00:18:43.299Z,64.89
2023-09-03T00:19:40.125Z,64.89
2023-09-03T00:20:36.877Z,64.97
2023-09-03T00:21:33.553Z,65.74
2023-09-03T00:22:30.356Z,65.95
2023-09-03T00:23:27.167Z,65.15
2023-09-03T00:24:23.976Z,64.82
2023-09-03T00:25:20.649Z,65.03
2023-09-03T00:26:19.372Z,64.96
2023-09-03T00:27:16.128Z,65.55
2023-09-03T00:28:12.881Z,65.65
2023-09-03T00:29:09.666Z,65.35
2023-09-03T00:30:06.882Z,65.24
2023-09-03T00:31:11.395Z,64.80
2023-09-03T00:32:08.087Z,64.37
2023-09-03T00:33:05.094Z,64.64
2023-09-03T00:34:01.830Z,65.36
2023-09-03T00:34:59.881Z,66.06
2023-09-03T00:35:56.580Z,64.99
2023-09-03T00:36:53.318Z,64.53
2023-09-03T00:37:49.943Z,64.68
2023-09-03T00:38:50.738Z,64.46
2023-09-03T00:39:47.413Z,64.90
2023-09-03T00:40:44.071Z,64.47
2023-09-03T00:41:40.658Z,64.10
2023-09-03T00:42:37.330Z,63.90
2023-09-03T00:43:34.665Z,63.42
2023-09-03T00:44:31.379Z,63.15
2023-09-03T00:45:28.019Z,63.16
2023-09-03T00:46:25.131Z,63.03
2023-09-03T00:47:22.202Z,62.87
2023-09-03T00:48:21.788Z,63.50
2023-09-03T00:49:22.882Z,62.82
2023-09-03T00:50:19.546Z,62.93
2023-09-03T00:51:18.303Z,63.08
2023-09-03T00:52:19.749Z,62.56
2023-09-03T00:53:17.931Z,62.62
2023-09-03T00:54:14.791Z,62.25
2023-09-03T00:55:11.451Z,62.70
2023-09-03T00:56:09.662Z,61.96
2023-09-03T00:57:06.377Z,61.87
2023-09-03T00:58:03.492Z,62.78
2023-09-03T00:59:03.567Z,62.74
2023-09-03T01:00:01.120Z,62.96
2023-09-03T01:00:57.845Z,62.85
2023-09-03T01:01:54.945Z,63.13
2023-09-03T01:02:54.280Z,62.39
2023-09-03T01:03:51.073Z,63.57
2023-09-03T01:04:47.820Z,63.73
2023-09-03T01:05:44.479Z,63.50
2023-09-03T01:06:41.298Z,62.49
2023-09-03T01:07:38.594Z,63.32
2023-09-03T01:08:37.032Z,63.88
2023-09-03T01:09:33.848Z,63.38
2023-09-03T01:10:49.719Z,63.58
2023-09-03T01:12:03.679Z,63.44
2023-09-03T01:13:40.808Z,63.41
2023-09-03T01:14:41.258Z,63.43
2023-09-03T01:15:43.803Z,63.40
2023-09-03T01:17:13.057Z,62.92
2023-09-03T01:18:17.735Z,63.86
2023-09-03T01:19:37.724Z,64.00
2023-09-03T01:20:43.265Z,64.01
2023-09-03T01:21:58.677Z,64.57
2023-09-03T01:23:04.437Z,64.86
2023-09-03T01:24:42.697Z,65.28
2023-09-03T01:26:03.766Z,65.15
2023-09-03T01:27:29.638Z,65.20
2023-09-03T01:28:39.584Z,65.42
2023-09-03T01:29:37.706Z,65.11
2023-09-03T01:30:35.294Z,64.37
2023-09-03T01:31:32.449Z,64.17
2023-09-03T01:32:29.302Z,63.99
2023-09-03T01:33:31.868Z,63.73
2023-09-03T01:34:28.875Z,65.06
2023-09-03T01:35:26.009Z,66.27
2023-09-03T01:36:23.556Z,66.50
2023-09-03T01:37:20.430Z,66.73
2023-09-03T01:38:17.220Z,67.05
2023-09-03T01:39:14.030Z,67.58
2023-09-03T01:40:11.676Z,67.79
2023-09-03T01:41:08.943Z,67.42
2023-09-03T01:42:05.732Z,67.70
2023-09-03T01:43:02.477Z,67.63
2023-09-03T01:43:59.360Z,67.71
2023-09-03T01:44:56.065Z,68.15
2023-09-03T01:45:55.366Z,68.40
2023-09-03T01:46:57.704Z,68.55
2023-09-03T01:48:40.719Z,69.42
2023-09-03T01:49:51.471Z,69.95
2023-09-03T01:51:12.198Z,70.53
2023-09-03T01:52:20.796Z,71.13
2023-09-03T01:53:30.323Z,71.63
2023-09-03T01:54:31.181Z,71.78
2023-09-03T01:55:31.556Z,72.03
2023-09-03T01:56:30.867Z,71.98
2023-09-03T01:57:33.653Z,72.13
2023-09-03T01:58:35.678Z,72.19
2023-09-03T01:59:45.214Z,71.54
2023-09-03T02:00:42.782Z,70.02
2023-09-03T02:01:39.767Z,70.09
2023-09-03T02:02:39.071Z,70.56
2023-09-03T02:03:37.462Z,69.75
2023-09-03T02:04:34.573Z,71.08
2023-09-03T02:05:31.401Z,70.91
2023-09-03T02:06:28.644Z,70.12
2023-09-03T02:07:25.975Z,70.80
2023-09-03T02:08:23.154Z,71.37
2023-09-03T02:09:20.273Z,71.01
2023-09-03T02:10:17.748Z,71.01
2023-09-03T02:11:14.456Z,70.85
2023-09-03T02:12:11.205Z,71.17
2023-09-03T02:13:07.936Z,71.32
2023-09-03T02:14:04.641Z,71.55
2023-09-03T02:15:01.283Z,71.96
2023-09-03T02:15:59.952Z,72.48
2023-09-03T02:16:56.632Z,72.64
2023-09-03T02:17:54.915Z,71.18
2023-09-03T02:18:51.665Z,71.49
2023-09-03T02:19:53.183Z,72.10
2023-09-03T02:20:49.870Z,72.17
2023-09-03T02:21:46.693Z,73.24
2023-09-03T02:22:43.294Z,72.73
2023-09-03T02:23:39.938Z,73.33
2023-09-03T02:24:36.578Z,72.63
2023-09-03T02:25:33.324Z,73.48
2023-09-03T02:26:30.207Z,72.15
2023-09-03T02:27:26.869Z,73.11
2023-09-03T02:28:23.581Z,73.52
2023-09-03T02:29:20.307Z,73.92
2023-09-03T02:30:17.817Z,73.24
2023-09-03T02:31:14.801Z,73.70
2023-09-03T02:32:11.588Z,74.10
2023-09-03T02:33:08.331Z,74.09
2023-09-03T02:34:06.543Z,74.31
2023-09-03T02:35:03.502Z,74.50
2023-09-03T02:36:00.223Z,73.65
2023-09-03T02:36:57.139Z,73.82
2023-09-03T02:37:53.913Z,73.57
2023-09-03T02:38:59.880Z,73.35
2023-09-03T02:39:56.505Z,73.02
2023-09-03T02:40:53.334Z,74.11
2023-09-03T02:41:50.136Z,74.10
2023-09-03T02:42:46.743Z,74.16
2023-09-03T02:43:43.379Z,73.32
2023-09-03T02:44:40.115Z,72.92
2023-09-03T02:45:36.812Z,74.12
2023-09-03T02:46:33.622Z,73.58
2023-09-03T02:47:30.410Z,74.27
2023-09-03T02:48:27.098Z,73.18
2023-09-03T02:49:23.762Z,72.45
2023-09-03T02:50:20.516Z,73.07
2023-09-03T02:51:17.417Z,72.40
2023-09-03T02:52:14.189Z,71.30
2023-09-03T02:53:11.648Z,71.63
2023-09-03T02:54:08.616Z,70.50
2023-09-03T02:55:05.590Z,70.76
2023-09-03T02:56:02.280Z,72.66
2023-09-03T02:56:58.944Z,73.37
2023-09-03T02:57:55.569Z,74.50
2023-09-03T02:58:52.344Z,74.67
2023-09-03T02:59:49.634Z,74.71
2023-09-03T03:00:46.315Z,74.94
2023-09-03T03:01:43.715Z,74.12
2023-09-03T03:02:40.591Z,75.39
2023-09-03T03:03:37.589Z,75.85
2023-09-03T03:04:34.242Z,76.24
2023-09-03T03:05:30.867Z,75.42
2023-09-03T03:06:27.541Z,75.64
2023-09-03T03:07:24.276Z,75.34
2023-09-03T03:08:21.108Z,75.52
2023-09-03T03:09:17.919Z,76.82
2023-09-03T03:10:15.708Z,76.70
2023-09-03T03:11:17.455Z,76.98
2023-09-03T03:12:14.143Z,77.09
2023-09-03T03:13:11.903Z,77.38
2023-09-03T03:14:08.541Z,77.64
2023-09-03T03:15:05.647Z,77.78
2023-09-03T03:16:09.675Z,77.56
2023-09-03T03:17:07.445Z,77.40
2023-09-03T03:18:04.458Z,77.84
2023-09-03T03:19:03.172Z,77.24
2023-09-03T03:19:59.840Z,77.89
2023-09-03T03:21:19.924Z,77.93
2023-09-03T03:22:16.640Z,78.65
2023-09-03T03:23:13.360Z,78.91
2023-09-03T03:24:10.534Z,79.20
2023-09-03T03:25:07.901Z,78.95
2023-09-03T03:26:06.222Z,78.88
2023-09-03T03:27:03.061Z,78.54
2023-09-03T03:27:59.765Z,77.87
2023-09-03T03:28:56.406Z,78.56
2023-09-03T03:29:53.634Z,77.83
2023-09-03T03:30:50.272Z,77.92
2023-09-03T03:31:47.585Z,77.87
2023-09-03T03:32:44.611Z,77.61
2023-09-03T03:33:42.525Z,78.02
2023-09-03T03:34:42.645Z,78.40
2023-09-03T03:35:39.399Z,78.60
2023-09-03T03:36:36.274Z,79.02
2023-09-03T03:37:33.039Z,79.26
2023-09-03T03:38:29.818Z,79.52
2023-09-03T03:39:26.716Z,80.02
2023-09-03T03:40:23.391Z,80.07
2023-09-03T03:41:21.261Z,80.12
2023-09-03T03:42:18.084Z,79.72
2023-09-03T03:43:14.868Z,79.85
2023-09-03T03:44:11.537Z,79.55
2023-09-03T03:45:08.506Z,79.64
2023-09-03T03:46:10.235Z,79.38
2023-09-03T03:47:06.959Z,79.75
2023-09-03T03:48:04.097Z,79.68
2023-09-03T03:49:01.100Z,80.15
2023-09-03T03:49:57.806Z,80.16
2023-09-03T03:50:58.115Z,79.83
2023-09-03T03:51:54.853Z,79.73
2023-09-03T03:52:51.530Z,80.22
2023-09-03T03:53:48.274Z,80.38
2023-09-03T03:54:44.963Z,80.77
2023-09-03T03:55:41.632Z,80.23
2023-09-03T03:56:38.303Z,80.65
2023-09-03T03:57:35.259Z,81.10
2023-09-03T03:58:34.429Z,81.27
2023-09-03T03:59:31.610Z,81.14
2023-09-03T04:00:28.934Z,81.16
2023-09-03T04:01:25.771Z,81.11
2023-09-03T04:02:23.001Z,81.13
2023-09-03T04:03:19.770Z,80.65
2023-09-03T04:04:16.699Z,80.30
2023-09-03T04:05:13.519Z,79.96
2023-09-03T04:06:10.612Z,81.19
2023-09-03T04:07:07.287Z,81.78
2023-09-03T04:08:04.322Z,81.73
2023-09-03T04:09:01.159Z,82.01
2023-09-03T04:09:57.895Z,82.51
2023-09-03T04:10:58.168Z,82.60
2023-09-03T04:11:54.837Z,83.13
2023-09-03T04:12:51.852Z,83.37
2023-09-03T04:13:48.636Z,83.22
2023-09-03T04:14:46.311Z,82.82
2023-09-03T04:15:42.971Z,82.78
2023-09-03T04:16:39.730Z,82.28
2023-09-03T04:17:36.674Z,82.29
2023-09-03T04:18:34.285Z,82.49
2023-09-03T04:19:30.937Z,82.26
2023-09-03T04:20:27.603Z,82.23
2023-09-03T04:21:24.339Z,82.08
2023-09-03T04:22:21.019Z,82.08
2023-09-03T04:23:17.627Z,82.03
2023-09-03T04:24:14.366Z,81.74
2023-09-03T04:25:10.978Z,81.56
2023-09-03T04:26:10.496Z,81.69
2023-09-03T04:27:07.294Z,81.49
2023-09-03T04:28:04.218Z,81.52
2023-09-03T04:29:00.977Z,81.83
2023-09-03T04:29:57.595Z,81.45
2023-09-03T04:30:55.460Z,81.56
2023-09-03T04:31:52.117Z,81.55
2023-09-03T04:32:48.762Z,81.47
2023-09-03T04:33:45.520Z,81.81
2023-09-03T04:34:42.170Z,81.75
2023-09-03T04:35:39.639Z,82.01
2023-09-03T04:36:36.406Z,81.92
2023-09-03T04:37:34.175Z,81.36
2023-09-03T04:38:31.375Z,81.66
2023-09-03T04:39:28.061Z,81.74
2023-09-03T04:40:25.395Z,81.81
2023-09-03T04:41:22.033Z,81.28
2023-09-03T04:42:18.726Z,81.08
2023-09-03T04:43:15.670Z,81.05
2023-09-03T04:44:13.929Z,80.53
2023-09-03T04:45:10.912Z,80.43
2023-09-03T04:46:08.430Z,80.30
2023-09-03T04:47:06.719Z,80.20
2023-09-03T04:48:04.001Z,79.99
2023-09-03T04:49:00.867Z,79.70
2023-09-03T04:49:57.570Z,79.21
2023-09-03T04:50:54.463Z,78.99
2023-09-03T04:51:51.141Z,79.18
2023-09-03T04:52:49.673Z,78.99
2023-09-03T04:53:46.978Z,78.77
2023-09-03T04:54:45.071Z,78.88
2023-09-03T04:55:42.511Z,78.71
2023-09-03T04:56:39.276Z,78.42
2023-09-03T04:57:35.940Z,78.70
2023-09-03T04:58:33.460Z,78.01
2023-09-03T04:59:30.409Z,76.88
2023-09-03T05:00:28.357Z,76.75
2023-09-03T05:01:25.400Z,76.39
2023-09-03T05:02:22.375Z,76.12
2023-09-03T05:03:19.081Z,75.89
2023-09-03T05:04:19.118Z,75.47
2023-09-03T05:05:15.841Z,75.49
2023-09-03T05:06:14.931Z,74.29
2023-09-03T05:07:11.618Z,73.36
2023-09-03T05:08:09.781Z,72.93
2023-09-03T05:09:07.149Z,72.83
2023-09-03T05:10:04.152Z,72.35
2023-09-03T05:11:09.018Z,71.83
2023-09-03T05:12:06.849Z,71.81
2023-09-03T05:13:05.365Z,72.11
2023-09-03T05:14:02.055Z,71.26
2023-09-03T05:14:58.832Z,71.60
2023-09-03T05:15:55.469Z,71.80
2023-09-03T05:16:52.218Z,71.29
2023-09-03T05:17:48.981Z,70.54
2023-09-03T05:18:45.775Z,70.43
2023-09-03T05:19:42.659Z,70.46
2023-09-03T05:20:39.855Z,70.29
2023-09-03T05:21:36.523Z,70.45
2023-09-03T05:22:34.532Z,70.81
2023-09-03T05:23:31.192Z,69.34
2023-09-03T05:24:27.848Z,68.88
2023-09-03T05:25:24.506Z,68.25
2023-09-03T05:26:21.129Z,67.89
2023-09-03T05:27:17.874Z,68.71
2023-09-03T05:28:14.529Z,68.46
2023-09-03T05:29:11.185Z,68.05
2023-09-03T05:30:08.426Z,67.40
2023-09-03T05:31:05.077Z,67.67
2023-09-03T05:32:02.113Z,67.51
2023-09-03T05:32:58.944Z,67.10
2023-09-03T05:33:55.934Z,66.90
2023-09-03T05:34:52.694Z,66.71
2023-09-03T05:35:49.331Z,67.84
2023-09-03T05:36:46.124Z,67.30
2023-09-03T05:37:42.823Z,67.79
2023-09-03T05:38:43.811Z,67.13
2023-09-03T05:39:40.611Z,67.08
2023-09-03T05:40:37.344Z,66.20
2023-09-03T05:41:34.818Z,66.95
2023-09-03T05:42:31.457Z,66.23
2023-09-03T05:43:28.249Z,65.82
2023-09-03T05:44:25.538Z,66.91
2023-09-03T05:45:22.251Z,66.94
2023-09-03T05:46:18.963Z,66.31
2023-09-03T05:47:19.636Z,66.34
2023-09-03T05:48:16.700Z,66.16
2023-09-03T05:49:13.516Z,66.25
2023-09-03T05:50:10.397Z,65.67
2023-09-03T05:51:07.275Z,65.29
2023-09-03T05:52:04.327Z,63.94
2023-09-03T05:53:00.981Z,63.51
2023-09-03T05:53:57.824Z,62.94
2023-09-03T05:54:54.617Z,62.06
2023-09-03T05:55:51.492Z,62.46
2023-09-03T05:56:48.150Z,63.14
2023-09-03T05:57:44.951Z,63.48
2023-09-03T05:58:41.658Z,64.14
2023-09-03T05:59:38.410Z,64.89
2023-09-03T06:00:35.096Z,64.96
2023-09-03T06:01:31.973Z,63.88
2023-09-03T06:02:28.686Z,63.83
2023-09-03T06:03:25.438Z,63.79
2023-09-03T06:04:22.110Z,62.46
2023-09-03T06:05:18.868Z,62.17
2023-09-03T06:06:15.783Z,62.64
2023-09-03T06:07:12.543Z,63.48
2023-09-03T06:08:11.573Z,63.53
2023-09-03T06:09:10.866Z,64.48
2023-09-03T06:10:08.156Z,63.50
2023-09-03T06:11:06.903Z,63.92
2023-09-03T06:12:03.858Z,63.60
2023-09-03T06:13:00.456Z,62.88
2023-09-03T06:13:57.105Z,62.72
2023-09-03T06:14:53.826Z,63.04
2023-09-03T06:15:51.478Z,62.79
2023-09-03T06:16:48.141Z,63.23
2023-09-03T06:17:50.002Z,63.71
2023-09-03T06:18:46.896Z,63.10
2023-09-03T06:19:44.188Z,61.93
2023-09-03T06:20:40.841Z,60.82
2023-09-03T06:21:37.538Z,61.30
2023-09-03T06:22:34.155Z,62.46
2023-09-03T06:23:30.923Z,61.89
2023-09-03T06:24:30.677Z,60.52
2023-09-03T06:25:28.071Z,60.60
2023-09-03T06:26:24.762Z,60.15
2023-09-03T06:27:21.404Z,61.63
2023-09-03T06:28:18.537Z,60.98
2023-09-03T06:29:15.139Z,61.70
2023-09-03T06:30:12.259Z,62.36
2023-09-03T06:31:10.604Z,62.94
2023-09-03T06:32:09.207Z,61.01
2023-09-03T06:33:06.224Z,60.15
2023-09-03T06:34:02.962Z,58.93
2023-09-03T06:34:59.649Z,58.96
2023-09-03T06:35:57.631Z,58.30
2023-09-03T06:36:54.363Z,59.80
2023-09-03T06:37:51.022Z,60.04
2023-09-03T06:38:47.755Z,61.61
2023-09-03T06:39:44.512Z,61.70
2023-09-03T06:40:41.197Z,61.73
2023-09-03T06:41:38.287Z,61.34
2023-09-03T06:42:34.974Z,60.48
2023-09-03T06:43:31.712Z,60.07
2023-09-03T06:44:28.363Z,60.10
2023-09-03T06:45:25.312Z,60.38
2023-09-03T06:46:22.313Z,58.87
2023-09-03T06:47:19.062Z,59.72
2023-09-03T06:48:15.801Z,59.75
2023-09-03T06:49:12.399Z,59.70
2023-09-03T06:50:10.009Z,58.67
2023-09-03T06:51:06.868Z,58.32
2023-09-03T06:52:03.652Z,57.63
2023-09-03T06:53:00.289Z,58.27
2023-09-03T06:53:57.653Z,58.15
2023-09-03T06:54:54.460Z,58.87
2023-09-03T06:55:52.126Z,57.17
2023-09-03T06:56:48.784Z,57.01
2023-09-03T06:57:45.419Z,57.63
2023-09-03T06:58:42.199Z,58.28
2023-09-03T06:59:38.938Z,59.20
2023-09-03T07:00:35.983Z,58.37
2023-09-03T07:01:33.353Z,58.28
2023-09-03T07:02:30.157Z,57.80
2023-09-03T07:03:27.797Z,57.36
2023-09-03T07:04:24.523Z,56.32
2023-09-03T07:05:21.158Z,55.68
2023-09-03T07:06:17.827Z,55.65
2023-09-03T07:07:14.463Z,57.34
2023-09-03T07:08:11.176Z,58.50
2023-09-03T07:09:07.854Z,58.43
2023-09-03T07:10:04.842Z,57.91
2023-09-03T07:11:01.714Z,56.14
2023-09-03T07:11:58.456Z,56.00
2023-09-03T07:12:56.397Z,55.97
2023-09-03T07:13:53.017Z,56.12
2023-09-03T07:14:49.736Z,56.61
2023-09-03T07:15:46.397Z,57.25
2023-09-03T07:16:43.097Z,56.20
2023-09-03T07:17:39.864Z,55.54
2023-09-03T07:18:36.553Z,55.28
2023-09-03T07:19:33.266Z,54.22
2023-09-03T07:20:29.962Z,53.29
2023-09-03T07:21:26.662Z,53.80
2023-09-03T07:22:23.348Z,54.92
2023-09-03T07:23:20.233Z,56.46
2023-09-03T07:24:17.320Z,55.01
2023-09-03T07:25:14.004Z,54.52
2023-09-03T07:26:10.871Z,54.57
2023-09-03T07:27:07.579Z,54.64
2023-09-03T07:28:04.453Z,53.94
2023-09-03T07:29:01.150Z,52.71
2023-09-03T07:29:57.938Z,53.62
2023-09-03T07:30:54.605Z,52.86
2023-09-03T07:31:51.304Z,52.53
2023-09-03T07:32:47.955Z,51.92
2023-09-03T07:33:46.173Z,51.73
2023-09-03T07:34:44.609Z,51.73
2023-09-03T07:35:41.573Z,50.93
2023-09-03T07:36:38.818Z,50.55
2023-09-03T07:37:35.915Z,50.42
2023-09-03T07:38:32.729Z,51.69
2023-09-03T07:39:29.380Z,50.47
2023-09-03T07:40:26.063Z,49.64
2023-09-03T07:41:22.731Z,50.53
2023-09-03T07:42:19.444Z,50.37
2023-09-03T07:43:16.149Z,50.50
2023-09-03T07:44:12.835Z,50.84
2023-09-03T07:45:11.289Z,50.50
2023-09-03T07:46:08.054Z,50.08
2023-09-03T07:47:04.985Z,50.42
2023-09-03T07:48:01.720Z,50.23
2023-09-03T07:48:58.406Z,50.40
2023-09-03T07:49:55.305Z,50.81
2023-09-03T07:50:53.186Z,51.02
2023-09-03T07:51:49.896Z,49.75
2023-09-03T07:52:46.759Z,49.89
2023-09-03T07:53:43.480Z,50.67
2023-09-03T07:54:40.964Z,50.10
2023-09-03T07:55:37.676Z,49.90
2023-09-03T07:56:34.403Z,50.00
2023-09-03T07:57:33.486Z,49.20
2023-09-03T07:58:30.206Z,48.85
2023-09-03T07:59:26.831Z,49.00
2023-09-03T08:00:23.511Z,48.50
2023-09-03T08:01:20.845Z,48.36
2023-09-03T08:02:17.557Z,47.71
2023-09-03T08:03:14.422Z,47.84
2023-09-03T08:04:11.140Z,47.81
2023-09-03T08:05:12.289Z,48.52
2023-09-03T08:06:09.577Z,48.44
2023-09-03T08:07:06.194Z,49.77
2023-09-03T08:08:03.553Z,49.25
2023-09-03T08:09:01.689Z,49.26
2023-09-03T08:09:58.345Z,49.44
2023-09-03T08:10:56.202Z,49.11
2023-09-03T08:11:52.929Z,48.96
2023-09-03T08:12:51.742Z,49.36
2023-09-03T08:13:57.638Z,47.73
2023-09-03T08:14:56.491Z,47.67
2023-09-03T08:15:54.825Z,47.43
2023-09-03T08:16:51.485Z,48.25
2023-09-03T08:17:48.166Z,47.40
2023-09-03T08:18:44.867Z,47.79
2023-09-03T08:19:41.788Z,46.79
2023-09-03T08:20:38.437Z,45.97
2023-09-03T08:21:35.119Z,45.10
2023-09-03T08:22:31.737Z,45.17
2023-09-03T08:23:29.356Z,45.77
2023-09-03T08:24:30.202Z,46.28
2023-09-03T08:25:29.159Z,46.58
2023-09-03T08:26:25.851Z,45.79
2023-09-03T08:27:22.515Z,45.31
2023-09-03T08:28:19.161Z,44.84
2023-09-03T08:29:15.813Z,43.96
2023-09-03T08:30:12.867Z,45.11
2023-09-03T08:31:09.582Z,43.71
2023-09-03T08:32:06.822Z,44.02
2023-09-03T08:33:03.796Z,43.94
2023-09-03T08:34:00.435Z,43.27
2023-09-03T08:34:57.353Z,43.83
2023-09-03T08:35:54.095Z,44.09
2023-09-03T08:36:50.742Z,44.15
2023-09-03T08:37:47.522Z,43.39
2023-09-03T08:38:44.253Z,44.07
2023-09-03T08:39:40.916Z,43.55
2023-09-03T08:40:37.850Z,42.26
2023-09-03T08:41:38.434Z,41.11
2023-09-03T08:42:36.879Z,42.23
2023-09-03T08:43:33.847Z,42.47
2023-09-03T08:44:50.582Z,41.96
2023-09-03T08:45:54.564Z,41.73
2023-09-03T08:46:53.357Z,41.34
2023-09-03T08:47:50.326Z,41.46
2023-09-03T08:48:50.671Z,41.54
2023-09-03T08:49:48.450Z,40.69
2023-09-03T08:50:45.706Z,40.07
2023-09-03T08:51:42.499Z,39.03
2023-09-03T08:52:41.021Z,38.47
2023-09-03T08:53:39.289Z,38.79
2023-09-03T08:54:36.533Z,38.29
2023-09-03T08:55:34.624Z,39.21
2023-09-03T08:56:31.548Z,39.69
2023-09-03T08:57:31.713Z,39.78
2023-09-03T08:58:28.295Z,39.91
2023-09-03T08:59:25.195Z,39.09
2023-09-03T09:00:22.284Z,40.27
2023-09-03T09:01:19.775Z,40.03
2023-09-03T09:02:18.631Z,39.70
2023-09-03T09:03:17.964Z,39.26
2023-09-03T09:04:15.025Z,38.50
2023-09-03T09:05:12.803Z,38.14
2023-09-03T09:06:09.441Z,38.87
2023-09-03T09:07:07.542Z,38.90
2023-09-03T09:08:06.021Z,39.11
2023-09-03T09:09:04.247Z,38.54
2023-09-03T09:10:07.670Z,37.26
2023-09-03T09:11:08.709Z,37.83
2023-09-03T09:12:18.705Z,38.51
2023-09-03T09:13:22.960Z,37.77
2023-09-03T09:14:36.380Z,37.09
2023-09-03T09:15:34.942Z,37.04
2023-09-03T09:16:31.609Z,37.68
2023-09-03T09:17:29.860Z,37.95
2023-09-03T09:18:26.516Z,36.90
2023-09-03T09:19:23.179Z,37.08
2023-09-03T09:20:20.699Z,37.14
2023-09-03T09:21:19.688Z,37.43
2023-09-03T09:22:18.477Z,36.29
2023-09-03T09:23:23.159Z,35.86
2023-09-03T09:24:20.362Z,36.25
2023-09-03T09:25:24.873Z,36.32
2023-09-03T09:26:23.591Z,36.11
2023-09-03T09:27:21.123Z,36.30
2023-09-03T09:28:17.750Z,36.14
2023-09-03T09:29:14.344Z,36.23
2023-09-03T09:30:12.265Z,35.37
2023-09-03T09:31:12.269Z,34.07
2023-09-03T09:32:22.985Z,33.75
2023-09-03T09:33:19.935Z,33.13
2023-09-03T09:34:19.202Z,34.14
2023-09-03T09:35:25.733Z,33.70
2023-09-03T09:36:22.443Z,34.22
2023-09-03T09:37:19.200Z,33.43
2023-09-03T09:38:17.357Z,34.63
2023-09-03T09:39:14.165Z,34.21
2023-09-03T09:40:13.832Z,33.57
2023-09-03T09:41:27.757Z,34.09
2023-09-03T09:42:24.733Z,34.57
2023-09-03T09:43:21.707Z,35.30
2023-09-03T09:44:19.692Z,34.44
2023-09-03T09:45:16.432Z,34.03
2023-09-03T09:46:26.706Z,33.44
2023-09-03T09:47:24.013Z,32.59
2023-09-03T09:48:20.709Z,33.70
2023-09-03T09:49:17.426Z,32.76
2023-09-03T09:50:14.037Z,32.88
2023-09-03T09:51:10.702Z,33.53
2023-09-03T09:52:07.316Z,32.17
2023-09-03T09:53:05.139Z,32.65
2023-09-03T09:54:03.584Z,33.51
2023-09-03T09:55:00.288Z,34.13
2023-09-03T09:56:04.243Z,34.17
2023-09-03T09:57:10.483Z,34.04
2023-09-03T09:58:08.718Z,35.03
2023-09-03T09:59:10.999Z,34.51
2023-09-03T10:00:09.294Z,35.15
2023-09-03T10:01:06.949Z,35.52
2023-09-03T10:02:17.501Z,35.46
2023-09-03T10:03:16.378Z,35.31
2023-09-03T10:04:13.386Z,35.69
2023-09-03T10:05:11.668Z,36.26
2023-09-03T10:06:11.567Z,34.98
2023-09-03T10:07:09.114Z,35.38
2023-09-03T10:08:07.078Z,35.01
2023-09-03T10:09:04.737Z,34.84
2023-09-03T10:10:02.297Z,32.98
2023-09-03T10:10:58.954Z,34.06
2023-09-03T10:11:55.593Z,34.17
2023-09-03T10:12:52.304Z,32.56
2023-09-03T10:13:49.892Z,32.32
2023-09-03T10:14:46.583Z,32.19
2023-09-03T10:15:43.435Z,32.11
2023-09-03T10:16:40.310Z,32.11
2023-09-03T10:17:39.547Z,33.01
2023-09-03T10:18:44.711Z,32.93
2023-09-03T10:19:54.872Z,31.32
2023-09-03T10:20:52.355Z,31.82
2023-09-03T10:21:53.945Z,32.40
2023-09-03T10:22:53.359Z,32.37
2023-09-03T10:23:51.707Z,32.27
2023-09-03T10:25:01.590Z,32.01
2023-09-03T10:26:05.602Z,32.07
2023-09-03T10:27:10.573Z,31.52
2023-09-03T10:28:08.671Z,31.67
2023-09-03T10:29:11.238Z,32.33
2023-09-03T10:30:12.303Z,32.86
2023-09-03T10:31:11.971Z,33.07
2023-09-03T10:32:11.861Z,33.60
2023-09-03T10:33:10.488Z,34.29
2023-09-03T10:34:11.757Z,34.03
2023-09-03T10:35:12.359Z,34.18
2023-09-03T10:36:19.624Z,34.37
2023-09-03T10:37:16.328Z,33.89
2023-09-03T10:38:30.906Z,35.23
2023-09-03T10:39:27.554Z,35.74
2023-09-03T10:40:25.979Z,36.47
2023-09-03T10:41:26.275Z,36.80
2023-09-03T10:42:27.429Z,36.52
2023-09-03T10:43:26.814Z,36.98
2023-09-03T10:44:32.825Z,37.69
2023-09-03T10:45:29.525Z,37.81
2023-09-03T10:46:28.953Z,37.78
2023-09-03T10:47:25.804Z,38.08
2023-09-03T10:48:22.576Z,38.02
2023-09-03T10:49:19.323Z,38.08
2023-09-03T10:50:49.731Z,38.16
2023-09-03T10:51:46.454Z,38.83
2023-09-03T10:52:43.218Z,38.64
2023-09-03T10:53:41.804Z,38.49
2023-09-03T10:54:39.160Z,38.32
2023-09-03T10:55:36.124Z,37.68
2023-09-03T10:56:32.829Z,35.81
2023-09-03T10:57:31.467Z,35.37
2023-09-03T10:58:31.959Z,35.71
2023-09-03T11:00:02.737Z,34.98
2023-09-03T11:01:27.507Z,35.03
2023-09-03T11:02:26.477Z,34.90
2023-09-03T11:03:24.896Z,34.65
2023-09-03T11:04:21.971Z,33.74
2023-09-03T11:05:22.198Z,33.42
2023-09-03T11:06:29.418Z,33.06
2023-09-03T11:07:26.090Z,32.94
2023-09-03T11:08:31.740Z,33.88
2023-09-03T11:09:28.592Z,34.10
2023-09-03T11:10:26.123Z,34.08
2023-09-03T11:11:22.950Z,32.91
2023-09-03T11:12:19.703Z,32.52
2023-09-03T11:13:26.980Z,31.83
2023-09-03T11:14:33.351Z,32.36
2023-09-03T11:15:30.101Z,32.33
2023-09-03T11:16:38.052Z,32.15
2023-09-03T11:17:34.763Z,31.34
2023-09-03T11:18:32.288Z,30.37
2023-09-03T11:19:40.785Z,30.67
2023-09-03T11:21:39.849Z,30.17
2023-09-03T11:22:38.494Z,30.46
2023-09-03T11:23:36.983Z,30.98
2023-09-03T11:24:45.987Z,30.63
2023-09-03T11:25:43.101Z,30.42
2023-09-03T11:26:40.070Z,29.69
2023-09-03T11:27:49.118Z,29.36
2023-09-03T11:28:47.314Z,29.80
2023-09-03T11:29:43.991Z,28.98
2023-09-03T11:30:47.081Z,29.20
2023-09-03T11:31:49.211Z,29.12
2023-09-03T11:32:45.810Z,29.39
2023-09-03T11:33:42.475Z,29.80
2023-09-03T11:34:39.153Z,30.56
2023-09-03T11:35:44.798Z,30.26
2023-09-03T11:36:41.471Z,31.38
2023-09-03T11:37:39.198Z,31.32
2023-09-03T11:38:36.091Z,31.66
2023-09-03T11:39:33.257Z,31.89
2023-09-03T11:40:30.071Z,32.36
2023-09-03T11:41:26.876Z,32.50
2023-09-03T11:42:23.805Z,32.78
2023-09-03T11:43:20.750Z,31.33
2023-09-03T11:44:21.082Z,32.04
2023-09-03T11:45:18.108Z,32.13
2023-09-03T11:46:16.683Z,32.51
2023-09-03T11:47:13.515Z,32.06
2023-09-03T11:48:13.561Z,32.82
2023-09-03T11:49:10.319Z,33.02
2023-09-03T11:50:17.059Z,34.32
2023-09-03T11:51:24.423Z,34.11
2023-09-03T11:52:23.324Z,34.02
2023-09-03T11:53:20.838Z,34.21
2023-09-03T11:54:27.260Z,34.31
2023-09-03T11:55:28.641Z,34.84
2023-09-03T11:56:28.890Z,34.78
2023-09-03T11:57:26.047Z,34.34
2023-09-03T11:58:27.403Z,34.41
2023-09-03T11:59:24.336Z,34.13
2023-09-03T12:00:21.630Z,34.51
2023-09-03T12:01:19.084Z,35.35
2023-09-03T12:02:16.584Z,34.82
2023-09-03T12:03:14.604Z,34.80
2023-09-03T12:04:11.767Z,34.68
2023-09-03T12:05:09.240Z,35.18
2023-09-03T12:06:06.075Z,35.04
2023-09-03T12:07:02.826Z,34.79
2023-09-03T12:08:04.077Z,34.83
2023-09-03T12:09:00.722Z,34.00
2023-09-03T12:09:57.432Z,34.47
2023-09-03T12:10:54.175Z,34.37
2023-09-03T12:11:51.331Z,34.01
2023-09-03T12:12:48.031Z,34.19
2023-09-03T12:13:45.677Z,34.53
2023-09-03T12:14:42.497Z,34.33
2023-09-03T12:15:39.288Z,33.67
2023-09-03T12:16:48.781Z,31.93
2023-09-03T12:17:45.609Z,31.96
2023-09-03T12:18:56.938Z,31.43
2023-09-03T12:19:53.914Z,31.15
2023-09-03T12:20:52.754Z,30.63
2023-09-03T12:21:53.522Z,30.89
2023-09-03T12:22:50.273Z,30.78
2023-09-03T12:23:47.174Z,30.21
2023-09-03T12:24:47.465Z,30.58
2023-09-03T12:25:44.365Z,29.07
2023-09-03T12:26:41.069Z,28.82
2023-09-03T12:27:50.669Z,28.84
2023-09-03T12:28:47.329Z,29.82
2023-09-03T12:29:52.230Z,29.88
2023-09-03T12:31:01.248Z,28.93
2023-09-03T12:31:57.991Z,28.82
2023-09-03T12:32:55.408Z,28.79
2023-09-03T12:33:52.573Z,30.31
2023-09-03T12:34:52.388Z,30.64
2023-09-03T12:36:05.719Z,30.96
2023-09-03T12:37:03.986Z,30.47